Time;durP1;ratioP1;P1;durP2;ratioP2;P2;SDS_P1;SDS_P2;PMS_P1;PMS_P2;Temp;Humidity;BMP_temperature;BMP_pressure;BME280_temperature;BME280_humidity;BME280_pressure;Samples;Min_cycle;Max_cycle;Signal;HPM_P1;HPM_P2
2023/11/16 00:00:36;;;;;;;9.02;1.70;;;;;;;6.09;100.00;97605.25;5039304;28;20047;-63
2023/11/16 00:03:06;;;;;;;7.53;1.70;;;;;;;6.08;100.00;97617.88;5038789;28;20042;-63
2023/11/16 00:05:36;;;;;;;5.93;1.45;;;;;;;6.09;100.00;97627.59;5033766;28;20029;-62
2023/11/16 00:08:07;;;;;;;5.18;1.55;;;;;;;6.10;100.00;97620.34;5030590;28;20068;-63
2023/11/16 00:10:37;;;;;;;3.80;1.50;;;;;;;6.18;100.00;97643.44;5036367;28;20055;-64
2023/11/16 00:13:04;;;;;;;4.05;1.77;;;;;;;6.07;100.00;97621.59;5037836;28;20042;-62
2023/11/16 00:15:32;;;;;;;5.03;1.77;;;;;;;6.02;100.00;97607.13;5035726;28;20403;-63
2023/11/16 00:18:03;;;;;;;3.50;1.40;;;;;;;5.89;100.00;97614.25;5037829;28;20609;-63
2023/11/16 00:20:30;;;;;;;2.90;1.40;;;;;;;5.91;100.00;97628.31;5041287;28;20036;-63
2023/11/16 00:22:57;;;;;;;3.28;1.38;;;;;;;6.02;100.00;97634.00;5037951;28;20322;-63
2023/11/16 00:25:23;;;;;;;5.03;2.00;;;;;;;6.02;100.00;97632.16;5036169;28;20033;-62
2023/11/16 00:27:50;;;;;;;6.15;1.90;;;;;;;6.02;100.00;97636.72;5043819;28;20069;-63
2023/11/16 00:30:17;;;;;;;6.68;1.83;;;;;;;5.99;100.00;97635.28;5042211;28;20067;-63
2023/11/16 00:32:44;;;;;;;4.63;2.03;;;;;;;5.97;100.00;97638.16;5039722;28;20140;-64
2023/11/16 00:35:11;;;;;;;7.38;2.00;;;;;;;5.96;100.00;97647.28;5034578;28;20056;-62
2023/11/16 00:37:37;;;;;;;5.35;1.85;;;;;;;6.08;100.00;97685.09;5037505;28;20044;-62
2023/11/16 00:40:05;;;;;;;7.22;1.75;;;;;;;6.08;100.00;97674.31;5044515;28;20491;-63
2023/11/16 00:42:31;;;;;;;4.97;1.90;;;;;;;6.05;100.00;97647.88;5033774;28;20042;-63
2023/11/16 00:44:58;;;;;;;6.80;2.08;;;;;;;6.03;100.00;97638.34;5040792;28;20038;-63
2023/11/16 00:47:24;;;;;;;4.57;1.58;;;;;;;5.99;100.00;97632.59;5050183;28;20045;-64
2023/11/16 00:49:51;;;;;;;5.20;1.98;;;;;;;6.03;100.00;97644.59;5036632;28;20089;-63
2023/11/16 00:52:19;;;;;;;7.65;2.20;;;;;;;6.09;100.00;97662.53;5036496;28;20045;-62
2023/11/16 00:54:48;;;;;;;5.35;1.77;;;;;;;6.06;100.00;97638.78;5039322;28;20045;-62
2023/11/16 00:57:17;;;;;;;5.18;1.88;;;;;;;6.03;100.00;97633.84;5041787;28;20068;-63
2023/11/16 00:59:46;;;;;;;5.10;2.50;;;;;;;5.97;100.00;97623.94;5036806;28;20048;-64
2023/11/16 01:02:13;;;;;;;5.05;1.75;;;;;;;5.79;100.00;97616.56;5036989;28;20408;-63
2023/11/16 01:04:41;;;;;;;7.05;2.10;;;;;;;5.79;100.00;97625.44;5048362;28;20045;-63
2023/11/16 01:07:10;;;;;;;4.38;1.92;;;;;;;5.80;100.00;97626.28;5037610;28;20116;-63
2023/11/16 01:09:38;;;;;;;5.63;2.22;;;;;;;5.76;100.00;97609.78;5035885;28;20397;-64
2023/11/16 01:12:11;;;;;;;5.18;2.20;;;;;;;5.83;100.00;97618.59;5040128;28;20041;-64
2023/11/16 01:14:39;;;;;;;2.95;1.75;;;;;;;5.88;100.00;97630.56;5039903;28;20043;-63
2023/11/16 01:17:11;;;;;;;6.07;1.58;;;;;;;5.95;100.00;97610.69;5036443;28;20046;-63
2023/11/16 01:19:45;;;;;;;5.28;1.70;;;;;;;5.92;100.00;97602.22;5045184;28;20661;-63
2023/11/16 01:22:15;;;;;;;6.20;2.05;;;;;;;5.98;100.00;97633.63;5035063;28;20550;-64
2023/11/16 01:24:44;;;;;;;7.50;1.60;;;;;;;6.08;100.00;97604.44;5037887;28;20036;-64
2023/11/16 01:27:25;;;;;;;4.32;1.23;;;;;;;6.21;100.00;97589.25;5038329;28;20051;-63
2023/11/16 01:29:52;;;;;;;5.57;1.52;;;;;;;6.05;100.00;97571.78;5042894;28;20037;-63
2023/11/16 01:32:20;;;;;;;5.28;1.58;;;;;;;6.14;100.00;97566.97;5029692;28;20033;-64
2023/11/16 01:34:47;;;;;;;6.75;1.52;;;;;;;6.07;100.00;97569.69;5032905;28;20045;-63
2023/11/16 01:37:14;;;;;;;5.72;1.50;;;;;;;6.07;100.00;97573.22;5041317;28;20510;-64
2023/11/16 01:39:40;;;;;;;9.02;1.88;;;;;;;6.11;100.00;97568.22;5032274;28;20558;-63
2023/11/16 01:42:09;;;;;;;5.95;1.70;;;;;;;6.02;100.00;97573.03;5037748;28;20045;-64
2023/11/16 01:44:38;;;;;;;8.13;1.70;;;;;;;6.07;100.00;97573.22;5040283;28;20052;-63
2023/11/16 01:47:08;;;;;;;3.85;1.17;;;;;;;6.17;100.00;97555.78;5042059;28;20619;-62
2023/11/16 01:49:35;;;;;;;3.65;1.65;;;;;;;6.22;100.00;97564.00;5049273;28;20055;-63
2023/11/16 01:52:02;;;;;;;4.97;1.55;;;;;;;6.30;100.00;97584.44;5041758;28;20079;-63
2023/11/16 01:54:30;;;;;;;4.95;1.30;;;;;;;6.30;100.00;97576.38;5038400;28;20061;-63
2023/11/16 01:56:58;;;;;;;3.22;1.27;;;;;;;6.28;100.00;97583.81;5037368;28;20080;-62
2023/11/16 01:59:27;;;;;;;4.07;1.30;;;;;;;6.22;100.00;97572.06;5034119;28;20136;-63
2023/11/16 02:01:56;;;;;;;3.35;1.40;;;;;;;6.20;100.00;97576.84;5034730;28;20132;-62
2023/11/16 02:04:24;;;;;;;6.18;1.55;;;;;;;6.23;100.00;97592.56;5037310;28;20061;-63
2023/11/16 02:06:53;;;;;;;4.88;1.27;;;;;;;6.22;100.00;97593.56;5043783;28;20044;-63
2023/11/16 02:09:21;;;;;;;6.07;1.52;;;;;;;6.22;100.00;97589.03;5037203;28;20039;-64
2023/11/16 02:11:47;;;;;;;5.63;1.60;;;;;;;6.24;100.00;97597.69;5035964;28;20044;-63
2023/11/16 02:14:14;;;;;;;4.05;1.52;;;;;;;6.26;100.00;97592.09;5037347;28;20996;-64
2023/11/16 02:16:40;;;;;;;3.08;1.50;;;;;;;6.20;100.00;97593.00;5035480;28;20124;-63
2023/11/16 02:19:32;;;;;;;6.32;2.05;;;;;;;6.13;100.00;97586.81;5033326;28;20050;-62
2023/11/16 02:22:00;;;;;;;4.00;1.40;;;;;;;6.21;100.00;97598.16;5035929;28;20554;-63
2023/11/16 02:24:27;;;;;;;3.47;1.65;;;;;;;6.11;100.00;97582.50;5043306;28;20711;-63
2023/11/16 02:26:54;;;;;;;5.05;1.33;;;;;;;6.03;100.00;97572.00;5036525;28;20052;-64
2023/11/16 02:29:21;;;;;;;4.70;1.40;;;;;;;5.98;100.00;97582.56;5029431;28;20038;-62
2023/11/16 02:31:48;;;;;;;6.25;1.60;;;;;;;6.03;100.00;97593.50;5037331;28;20053;-63
2023/11/16 02:34:14;;;;;;;4.82;1.42;;;;;;;5.99;100.00;97600.34;5046796;28;20086;-63
2023/11/16 02:36:41;;;;;;;4.70;1.52;;;;;;;5.97;100.00;97607.81;5038463;28;20048;-63
2023/11/16 02:39:08;;;;;;;3.72;1.50;;;;;;;6.07;100.00;97602.78;5038055;28;20041;-63
2023/11/16 02:41:36;;;;;;;5.57;1.17;;;;;;;6.13;100.00;97609.16;5038082;28;20044;-64
2023/11/16 02:44:03;;;;;;;4.85;1.27;;;;;;;6.22;100.00;97612.41;5036113;28;20045;-64
2023/11/16 02:46:31;;;;;;;3.40;1.40;;;;;;;6.19;100.00;97591.34;5034439;28;20489;-64
2023/11/16 02:48:57;;;;;;;4.85;2.08;;;;;;;6.18;100.00;97587.00;5035633;28;20083;-63
2023/11/16 02:51:24;;;;;;;4.60;1.70;;;;;;;6.06;100.00;97568.06;5032061;28;20080;-63
2023/11/16 02:53:51;;;;;;;5.53;1.30;;;;;;;6.00;100.00;97561.66;5029728;28;20526;-64
2023/11/16 02:56:19;;;;;;;4.63;1.38;;;;;;;5.99;100.00;97565.38;5041810;28;20069;-62
2023/11/16 02:58:46;;;;;;;4.55;1.23;;;;;;;6.01;100.00;97573.25;5032859;28;20098;-63
2023/11/16 03:01:14;;;;;;;5.47;1.58;;;;;;;5.91;100.00;97563.78;5040268;28;20564;-62
2023/11/16 03:03:40;;;;;;;5.50;1.30;;;;;;;5.91;100.00;97563.78;5044953;28;20502;-63
2023/11/16 03:06:08;;;;;;;2.80;1.15;;;;;;;5.86;100.00;97558.22;5047354;28;20645;-63
2023/11/16 03:08:35;;;;;;;6.10;1.67;;;;;;;5.96;100.00;97563.13;5042633;28;20051;-63
2023/11/16 03:11:02;;;;;;;6.82;1.50;;;;;;;6.03;100.00;97537.06;5040948;28;20099;-62
2023/11/16 03:13:29;;;;;;;4.72;1.38;;;;;;;6.09;100.00;97533.50;5042362;28;20032;-63
2023/11/16 03:15:56;;;;;;;3.78;1.15;;;;;;;6.20;100.00;97526.56;5042876;28;20561;-62
2023/11/16 03:18:23;;;;;;;4.60;1.05;;;;;;;6.29;100.00;97497.56;5041047;28;20535;-63
2023/11/16 03:20:49;;;;;;;7.10;1.20;;;;;;;6.19;100.00;97487.28;5046928;28;20102;-63
2023/11/16 03:23:16;;;;;;;2.65;1.00;;;;;;;6.30;100.00;97466.91;5040953;28;20534;-62
2023/11/16 03:25:43;;;;;;;5.75;1.13;;;;;;;6.31;100.00;97465.06;5039508;28;20032;-64
2023/11/16 03:28:10;;;;;;;4.93;1.08;;;;;;;6.27;100.00;97459.31;5041285;28;20037;-63
2023/11/16 03:30:38;;;;;;;5.28;1.08;;;;;;;6.26;100.00;97465.72;5042545;28;20477;-63
2023/11/16 03:33:08;;;;;;;2.55;1.30;;;;;;;6.07;100.00;97460.31;5042383;28;20127;-64
2023/11/16 03:35:35;;;;;;;4.28;1.17;;;;;;;6.05;100.00;97459.69;5041998;28;20068;-63
2023/11/16 03:38:02;;;;;;;3.63;1.15;;;;;;;6.06;100.00;97461.38;5035691;28;20064;-63
2023/11/16 03:40:30;;;;;;;4.50;1.63;;;;;;;6.09;100.00;97463.59;5046028;28;20143;-63
2023/11/16 03:42:57;;;;;;;3.13;1.00;;;;;;;6.12;100.00;97470.41;5040034;28;20040;-62
2023/11/16 03:45:24;;;;;;;3.10;1.00;;;;;;;6.07;100.00;97473.75;5040628;28;20491;-64
2023/11/16 03:47:50;;;;;;;2.55;0.95;;;;;;;6.07;100.00;97476.44;5039109;28;20142;-62
2023/11/16 03:50:18;;;;;;;3.80;0.98;;;;;;;6.09;100.00;97473.53;5038108;28;20575;-64
2023/11/16 03:52:45;;;;;;;2.92;1.10;;;;;;;6.07;100.00;97475.59;5043829;28;20057;-63
2023/11/16 03:55:12;;;;;;;2.95;0.70;;;;;;;6.03;100.00;97482.44;5032145;28;20088;-64
2023/11/16 03:57:39;;;;;;;4.93;1.30;;;;;;;6.06;100.00;97496.31;5036291;28;20033;-62
2023/11/16 04:00:07;;;;;;;4.40;1.35;;;;;;;6.09;100.00;97492.34;5036322;28;20565;-64
2023/11/16 04:02:37;;;;;;;4.53;1.20;;;;;;;6.15;100.00;97498.72;5035276;28;20168;-62
2023/11/16 04:05:05;;;;;;;1.45;0.90;;;;;;;6.08;100.00;97496.09;5037721;28;20059;-63
2023/11/16 04:07:35;;;;;;;3.10;1.20;;;;;;;6.06;100.00;97492.78;5042305;28;20742;-64
2023/11/16 04:10:04;;;;;;;4.80;1.10;;;;;;;5.92;100.00;97490.19;5044678;28;20049;-63
2023/11/16 04:12:30;;;;;;;3.15;0.90;;;;;;;5.82;100.00;97487.97;5047823;28;20101;-65
2023/11/16 04:14:57;;;;;;;4.55;1.10;;;;;;;5.79;100.00;97490.28;5045585;28;20041;-63
2023/11/16 04:17:23;;;;;;;2.08;0.90;;;;;;;5.76;100.00;97491.56;5039629;28;20115;-63
2023/11/16 04:19:51;;;;;;;4.13;1.23;;;;;;;5.83;100.00;97492.31;5029610;28;20072;-64
2023/11/16 04:22:21;;;;;;;5.13;1.17;;;;;;;5.92;100.00;97486.66;5050412;28;20565;-63
2023/11/16 04:24:51;;;;;;;3.33;1.25;;;;;;;5.94;100.00;97480.03;5050096;28;20051;-64
2023/11/16 04:27:19;;;;;;;3.50;1.58;;;;;;;6.04;100.00;97465.31;5040464;28;20029;-64
2023/11/16 04:29:46;;;;;;;4.53;1.35;;;;;;;5.88;100.00;97462.09;5039770;28;20063;-64
2023/11/16 04:32:14;;;;;;;1.70;0.90;;;;;;;5.83;100.00;97483.44;5045330;28;20707;-64
2023/11/16 04:34:42;;;;;;;4.50;1.60;;;;;;;5.91;100.00;97485.84;5042890;28;20489;-64
2023/11/16 04:37:10;;;;;;;6.05;2.00;;;;;;;5.86;100.00;97482.97;5041446;28;20044;-63
2023/11/16 04:39:37;;;;;;;4.97;1.38;;;;;;;5.85;100.00;97490.22;5039218;28;20132;-63
2023/11/16 04:42:04;;;;;;;5.07;1.48;;;;;;;5.76;100.00;97488.88;5047685;28;20044;-62
2023/11/16 04:44:34;;;;;;;8.20;1.75;;;;;;;5.81;100.00;97485.50;5045839;28;20508;-64
2023/11/16 04:47:01;;;;;;;3.03;1.35;;;;;;;5.81;100.00;97482.81;5051082;28;20119;-64
2023/11/16 04:49:27;;;;;;;5.40;1.40;;;;;;;5.83;100.00;97489.63;5044994;28;20623;-64
2023/11/16 04:51:54;;;;;;;3.40;1.55;;;;;;;5.86;100.00;97502.63;5037447;28;20524;-62
2023/11/16 04:54:21;;;;;;;7.53;1.67;;;;;;;5.91;100.00;97501.97;5037327;28;20047;-63
2023/11/16 04:56:47;;;;;;;3.58;1.50;;;;;;;5.95;100.00;97505.03;5037699;28;20047;-63
2023/11/16 04:59:14;;;;;;;4.97;1.67;;;;;;;5.91;100.00;97490.41;5039893;28;20045;-63
2023/11/16 05:01:40;;;;;;;3.10;1.38;;;;;;;5.84;100.00;97483.22;5036717;28;20114;-62
2023/11/16 05:04:07;;;;;;;3.20;1.30;;;;;;;5.76;100.00;97477.28;5035282;28;20052;-64
2023/11/16 05:06:39;;;;;;;3.60;1.50;;;;;;;5.69;100.00;97471.97;5039488;28;20044;-63
2023/11/16 05:09:06;;;;;;;;;;;;;;;5.66;100.00;97481.28;5038274;28;20112;-64
2023/11/16 05:11:32;;;;;;;4.70;1.40;;;;;;;5.69;100.00;97488.06;5049139;28;20471;-63
2023/11/16 05:13:59;;;;;;;2.80;1.50;;;;;;;5.70;100.00;97484.34;5042701;28;20047;-64
2023/11/16 05:16:27;;;;;;;5.00;1.50;;;;;;;5.62;100.00;97485.44;5043039;28;20108;-63
2023/11/16 05:18:54;;;;;;;3.20;1.50;;;;;;;5.57;100.00;97496.00;5041503;28;20649;-64
2023/11/16 05:21:21;;;;;;;5.75;1.80;;;;;;;5.59;100.00;97497.44;5056150;28;20045;-63
2023/11/16 05:23:48;;;;;;;5.53;1.77;;;;;;;5.68;100.00;97505.25;5035102;28;20034;-64
2023/11/16 05:26:16;;;;;;;4.28;1.77;;;;;;;5.72;100.00;97517.22;5041954;28;20440;-64
2023/11/16 05:28:43;;;;;;;8.02;2.30;;;;;;;5.76;100.00;97514.91;5035048;28;20065;-63
2023/11/16 05:31:10;;;;;;;7.57;2.67;;;;;;;5.78;100.00;97491.34;5040976;28;20504;-63
2023/11/16 05:33:38;;;;;;;6.97;2.70;;;;;;;5.73;100.00;97479.38;5046246;28;20041;-62
2023/11/16 05:36:06;;;;;;;7.85;2.40;;;;;;;5.75;100.00;97470.28;5045605;28;20045;-63
2023/11/16 05:38:32;;;;;;;5.57;2.20;;;;;;;5.65;100.00;97462.69;5038597;28;20052;-63
2023/11/16 05:40:59;;;;;;;4.00;1.83;;;;;;;5.67;100.00;97464.13;5034679;28;20041;-63
2023/11/16 05:43:26;;;;;;;6.90;2.65;;;;;;;5.72;100.00;97450.03;5031302;28;20045;-63
2023/11/16 05:45:52;;;;;;;8.05;2.47;;;;;;;5.63;100.00;97444.09;5044499;28;20045;-64
2023/11/16 05:48:19;;;;;;;5.28;2.20;;;;;;;5.58;100.00;97457.38;5037614;28;20512;-62
2023/11/16 05:50:46;;;;;;;7.35;2.10;;;;;;;5.59;100.00;97449.09;5049191;28;20377;-63
2023/11/16 05:53:13;;;;;;;10.93;2.55;;;;;;;5.64;100.00;97443.06;5043691;28;20069;-62
2023/11/16 05:55:40;;;;;;;6.88;2.05;;;;;;;5.64;100.00;97439.56;5040909;28;20120;-63
2023/11/16 05:58:06;;;;;;;9.00;2.50;;;;;;;5.67;100.00;97444.47;5035346;28;20045;-63
2023/11/16 06:00:36;;;;;;;6.65;3.05;;;;;;;5.71;100.00;97443.84;5037191;28;20544;-62
2023/11/16 06:03:04;;;;;;;4.97;2.17;;;;;;;5.76;100.00;97429.75;5042582;28;20041;-63
2023/11/16 06:05:36;;;;;;;12.43;2.72;;;;;;;5.72;100.00;97409.75;5040667;28;20045;-62
2023/11/16 06:08:03;;;;;;;5.45;1.77;;;;;;;5.79;100.00;97412.38;5046622;28;20036;-64
2023/11/16 06:10:30;;;;;;;5.30;2.25;;;;;;;5.76;100.00;97392.13;5042308;28;20060;-63
2023/11/16 06:12:58;;;;;;;10.10;2.20;;;;;;;5.79;100.00;97391.69;5043816;28;20042;-64
2023/11/16 06:15:28;;;;;;;8.00;1.90;;;;;;;5.83;100.00;97397.44;5039263;28;20052;-63
2023/11/16 06:17:55;;;;;;;8.32;2.10;;;;;;;5.87;100.00;97387.91;5035768;28;20493;-63
2023/11/16 06:20:22;;;;;;;8.27;2.25;;;;;;;5.85;100.00;97380.06;5045767;28;20045;-62
2023/11/16 06:22:50;;;;;;;7.82;2.38;;;;;;;5.63;100.00;97376.94;5051968;28;20140;-63
2023/11/16 06:25:17;;;;;;;4.80;1.98;;;;;;;5.60;100.00;97388.94;5036861;28;20063;-63
2023/11/16 06:27:45;;;;;;;6.13;2.60;;;;;;;5.55;100.00;97388.78;5036656;28;20051;-62
2023/11/16 06:30:12;;;;;;;6.72;2.45;;;;;;;5.56;100.00;97389.59;5042020;28;20048;-63
2023/11/16 06:32:40;;;;;;;6.00;2.22;;;;;;;5.64;100.00;97391.22;5042845;28;20103;-63
2023/11/16 06:35:07;;;;;;;9.82;1.83;;;;;;;5.45;100.00;97383.06;5041296;28;20499;-64
2023/11/16 06:37:33;;;;;;;7.70;2.35;;;;;;;5.46;100.00;97385.53;5039853;28;20041;-62
2023/11/16 06:40:00;;;;;;;5.70;2.80;;;;;;;5.45;100.00;97391.13;5033728;28;20049;-62
2023/11/16 06:42:26;;;;;;;5.88;2.22;;;;;;;5.52;100.00;97378.47;5044201;28;20503;-64
2023/11/16 06:44:53;;;;;;;8.18;4.47;;;;;;;5.47;100.00;97378.31;5043342;28;20032;-63
2023/11/16 06:47:20;;;;;;;48.17;30.42;;;;;;;5.35;100.00;97375.53;5038637;28;20037;-62
2023/11/16 06:49:48;;;;;;;20.58;13.05;;;;;;;5.28;100.00;97386.31;5044482;28;20048;-63
2023/11/16 06:52:17;;;;;;;14.57;7.95;;;;;;;5.17;100.00;97384.31;5043790;28;20041;-63
2023/11/16 06:54:44;;;;;;;14.45;8.38;;;;;;;5.08;100.00;97394.47;5039779;28;20262;-63
2023/11/16 06:57:10;;;;;;;16.38;10.20;;;;;;;5.09;100.00;97396.13;5030690;28;20055;-62
2023/11/16 06:59:38;;;;;;;16.88;8.95;;;;;;;5.03;100.00;97388.94;5029044;28;20056;-63
2023/11/16 07:02:07;;;;;;;27.52;14.27;;;;;;;5.06;100.00;97394.69;5036009;28;20116;-62
2023/11/16 07:04:37;;;;;;;25.13;14.23;;;;;;;5.11;100.00;97394.06;5035435;28;20049;-62
2023/11/16 07:07:04;;;;;;;18.27;9.98;;;;;;;5.19;100.00;97398.31;5040879;28;20050;-63
2023/11/16 07:09:31;;;;;;;5.68;2.33;;;;;;;5.32;100.00;97400.13;5048597;28;20539;-61
2023/11/16 07:11:59;;;;;;;10.73;3.33;;;;;;;5.49;100.00;97416.50;5030881;28;20045;-63
2023/11/16 07:14:28;;;;;;;7.07;3.40;;;;;;;5.49;100.00;97419.19;5044828;28;20093;-62
2023/11/16 07:17:11;;;;;;;15.30;8.70;;;;;;;5.23;100.00;97372.69;5039269;28;20134;-62
2023/11/16 07:19:38;;;;;;;16.67;9.65;;;;;;;5.32;100.00;97384.84;5044911;28;20044;-63
2023/11/16 07:22:06;;;;;;;13.63;8.02;;;;;;;5.29;100.00;97385.28;5031949;28;20065;-62
2023/11/16 07:24:33;;;;;;;12.13;6.78;;;;;;;5.31;100.00;97369.75;5045085;28;20052;-63
2023/11/16 07:27:02;;;;;;;7.35;3.85;;;;;;;5.25;100.00;97367.94;5039344;28;20136;-63
2023/11/16 07:29:31;;;;;;;7.53;3.58;;;;;;;5.17;100.00;97366.31;5036898;28;20054;-63
2023/11/16 07:31:58;;;;;;;9.45;4.32;;;;;;;5.18;100.00;97372.53;5049812;28;20516;-63
2023/11/16 07:34:25;;;;;;;19.02;9.15;;;;;;;5.35;100.00;97410.44;5039867;28;20047;-62
2023/11/16 07:36:52;;;;;;;12.18;6.93;;;;;;;5.40;100.00;97402.53;5041993;28;20041;-63
2023/11/16 07:39:19;;;;;;;7.75;3.20;;;;;;;5.36;100.00;97374.47;5039126;28;20048;-63
2023/11/16 07:41:45;;;;;;;10.13;4.28;;;;;;;5.42;100.00;97367.41;5045024;28;20470;-63
2023/11/16 07:44:12;;;;;;;7.80;4.72;;;;;;;5.43;100.00;97348.41;5037296;28;20053;-64
2023/11/16 07:46:38;;;;;;;6.47;2.80;;;;;;;5.36;100.00;97342.25;5046552;28;20094;-62
2023/11/16 07:49:05;;;;;;;8.40;3.30;;;;;;;5.39;100.00;97349.03;5032679;28;20120;-62
2023/11/16 07:51:32;;;;;;;9.15;2.85;;;;;;;5.47;100.00;97359.53;5037560;28;20040;-62
2023/11/16 07:54:03;;;;;;;6.65;2.90;;;;;;;5.47;100.00;97360.34;5038367;28;20049;-62
2023/11/16 07:56:31;;;;;;;14.40;3.10;;;;;;;5.52;100.00;97345.41;5046483;28;20047;-63
2023/11/16 07:58:59;;;;;;;8.60;3.28;;;;;;;5.51;100.00;97341.94;5037986;28;20041;-63
2023/11/16 08:01:38;;;;;;;12.07;3.83;;;;;;;5.56;100.00;97354.69;5037267;28;20045;-63
2023/11/16 08:04:05;;;;;;;6.68;3.13;;;;;;;5.61;100.00;97344.13;5040107;28;20059;-62
2023/11/16 08:06:35;;;;;;;9.82;3.20;;;;;;;5.72;100.00;97353.31;5038388;28;20125;-63
2023/11/16 08:09:02;;;;;;;6.15;3.05;;;;;;;5.84;100.00;97345.34;5048880;28;20033;-62
2023/11/16 08:11:31;;;;;;;7.53;2.85;;;;;;;5.94;100.00;97334.88;5043981;28;20052;-63
2023/11/16 08:13:58;;;;;;;5.63;2.65;;;;;;;6.02;100.00;97317.66;5045092;28;20722;-62
2023/11/16 08:16:24;;;;;;;8.32;2.85;;;;;;;6.09;100.00;97304.19;5044528;28;20052;-63
2023/11/16 08:18:53;;;;;;;9.20;2.75;;;;;;;6.16;100.00;97288.78;5049085;28;20536;-64
2023/11/16 08:21:20;;;;;;;8.52;3.38;;;;;;;6.27;100.00;97281.00;5035263;28;20497;-62
2023/11/16 08:23:49;;;;;;;11.57;3.15;;;;;;;6.28;100.00;97251.22;5040711;28;20044;-63
2023/11/16 08:26:18;;;;;;;9.32;2.83;;;;;;;6.31;100.00;97231.94;5037864;28;20110;-62
2023/11/16 08:28:47;;;;;;;6.47;2.00;;;;;;;6.37;100.00;97219.44;5034545;28;20520;-60
2023/11/16 08:31:16;;;;;;;5.55;2.15;;;;;;;6.28;100.00;97204.66;5040076;28;20059;-59
2023/11/16 08:33:43;;;;;;;10.60;2.42;;;;;;;6.30;100.00;97206.06;5039223;28;20067;-59
2023/11/16 08:36:11;;;;;;;6.63;2.35;;;;;;;6.44;100.00;97206.72;5039399;28;20052;-60
2023/11/16 08:38:42;;;;;;;10.68;2.60;;;;;;;6.44;100.00;97204.03;5041052;28;20503;-60
2023/11/16 08:41:16;;;;;;;9.20;2.78;;;;;;;6.45;100.00;97199.47;5043632;28;20427;-60
2023/11/16 08:43:44;;;;;;;9.48;2.85;;;;;;;6.54;100.00;97200.78;5042753;28;20049;-59
2023/11/16 08:46:20;;;;;;;5.70;1.85;;;;;;;6.57;100.00;97205.72;5050714;28;20044;-60
2023/11/16 08:48:47;;;;;;;6.05;1.85;;;;;;;6.61;100.00;97196.13;5043086;28;20041;-60
2023/11/16 08:51:16;;;;;;;4.85;2.25;;;;;;;6.60;100.00;97205.22;5044421;28;20050;-60
2023/11/16 08:53:44;;;;;;;5.95;1.83;;;;;;;6.64;100.00;97206.41;5048361;28;20037;-60
2023/11/16 08:56:11;;;;;;;4.10;1.92;;;;;;;6.72;100.00;97197.19;5038667;28;20126;-60
2023/11/16 08:58:47;;;;;;;5.82;1.92;;;;;;;6.83;100.00;97190.19;5047313;28;20418;-60
2023/11/16 09:01:17;;;;;;;5.28;1.92;;;;;;;6.80;100.00;97185.28;5040219;28;20037;-59
2023/11/16 09:03:49;;;;;;;4.95;1.90;;;;;;;6.82;100.00;97183.16;5043622;28;20527;-60
2023/11/16 09:06:18;;;;;;;7.25;1.65;;;;;;;6.87;100.00;97182.47;5046197;28;20053;-63
2023/11/16 09:08:49;;;;;;;6.07;1.45;;;;;;;6.98;100.00;97180.84;5039508;28;20107;-63
2023/11/16 09:11:17;;;;;;;3.80;1.50;;;;;;;7.02;100.00;97169.38;5046370;28;20036;-62
2023/11/16 09:13:44;;;;;;;5.57;1.85;;;;;;;7.13;100.00;97156.97;5044698;28;20054;-63
2023/11/16 09:16:11;;;;;;;7.63;2.80;;;;;;;7.25;100.00;97158.81;5055805;28;20048;-62
2023/11/16 09:18:41;;;;;;;5.10;1.75;;;;;;;7.30;100.00;97148.19;5040674;28;20676;-62
2023/11/16 09:21:09;;;;;;;5.00;1.92;;;;;;;7.36;100.00;97144.53;5042722;28;20697;-62
2023/11/16 09:23:36;;;;;;;4.55;1.90;;;;;;;7.39;100.00;97140.53;5048838;28;20032;-63
2023/11/16 09:26:04;;;;;;;8.13;2.00;;;;;;;7.27;100.00;97133.28;5037242;28;20041;-62
2023/11/16 09:28:35;;;;;;;8.43;1.83;;;;;;;7.41;100.00;97131.16;5039419;28;20033;-64
2023/11/16 09:31:10;;;;;;;6.85;1.83;;;;;;;7.48;100.00;97122.16;5048272;28;20044;-62
2023/11/16 09:33:40;;;;;;;6.32;2.10;;;;;;;7.53;100.00;97117.66;5046698;28;20060;-61
2023/11/16 09:36:09;;;;;;;8.05;2.20;;;;;;;7.58;100.00;97106.19;5043808;28;20045;-64
2023/11/16 09:38:36;;;;;;;6.97;2.50;;;;;;;7.61;100.00;97107.56;5050810;28;20033;-61
2023/11/16 09:41:15;;;;;;;5.15;2.25;;;;;;;7.62;100.00;97091.16;5041516;28;20044;-62
2023/11/16 09:43:51;;;;;;;8.50;2.65;;;;;;;7.67;100.00;97091.25;5038482;28;20042;-62
2023/11/16 09:46:21;;;;;;;7.75;2.00;;;;;;;7.67;100.00;97091.25;5045580;28;20048;-62
2023/11/16 09:48:49;;;;;;;5.20;1.88;;;;;;;7.66;100.00;97084.25;5039759;28;20562;-63
2023/11/16 09:51:17;;;;;;;9.55;1.98;;;;;;;7.69;100.00;97085.63;5038013;28;20041;-62
2023/11/16 09:53:46;;;;;;;6.65;1.90;;;;;;;7.69;100.00;97077.53;5038530;28;20126;-62
2023/11/16 09:56:19;;;;;;;9.20;2.25;;;;;;;7.76;100.00;97063.94;5046401;28;20044;-61
2023/11/16 09:59:13;;;;;;;8.25;2.10;;;;;;;7.79;100.00;97060.75;5046345;28;20558;-63
2023/11/16 10:01:52;;;;;;;5.18;2.20;;;;;;;7.78;100.00;97061.81;5043677;28;20124;-63
2023/11/16 10:04:19;;;;;;;5.90;1.67;;;;;;;7.81;100.00;97053.22;5041203;28;20037;-62
2023/11/16 10:06:48;;;;;;;6.32;1.58;;;;;;;7.79;100.00;97049.97;5053763;28;20090;-62
2023/11/16 10:09:15;;;;;;;6.38;1.65;;;;;;;7.70;100.00;97037.94;5047594;28;20091;-62
2023/11/16 10:11:42;;;;;;;8.55;2.00;;;;;;;7.72;100.00;97035.81;5039334;28;20045;-62
2023/11/16 10:14:08;;;;;;;4.55;1.48;;;;;;;7.59;100.00;97037.75;5042022;28;20841;-64
2023/11/16 10:16:35;;;;;;;6.65;2.20;;;;;;;7.67;100.00;97023.88;5041847;28;20071;-63
2023/11/16 10:19:10;;;;;;;5.22;1.17;;;;;;;7.67;100.00;97015.00;5039982;28;20060;-64
2023/11/16 10:21:42;;;;;;;3.80;1.48;;;;;;;7.59;100.00;97008.09;5040027;28;20065;-63
2023/11/16 10:24:10;;;;;;;6.68;1.42;;;;;;;7.66;100.00;96989.09;5044212;28;20045;-64
2023/11/16 10:26:38;;;;;;;4.75;2.30;;;;;;;7.72;100.00;96984.63;5043104;28;20048;-63
2023/11/16 10:29:06;;;;;;;6.50;2.15;;;;;;;7.77;100.00;96980.13;5038539;28;20037;-64
2023/11/16 10:31:33;;;;;;;6.28;1.70;;;;;;;7.79;100.00;96969.94;5045644;28;20044;-64
2023/11/16 10:34:03;;;;;;;3.85;1.52;;;;;;;7.85;100.00;96957.34;5040734;28;20553;-63
2023/11/16 10:36:32;;;;;;;5.80;1.70;;;;;;;7.79;100.00;96943.00;5047720;28;20090;-63
2023/11/16 10:39:00;;;;;;;5.57;2.00;;;;;;;7.82;100.00;96941.69;5035132;28;20088;-63
2023/11/16 10:41:29;;;;;;;6.30;1.77;;;;;;;7.84;100.00;96930.63;5041604;28;20131;-63
2023/11/16 10:43:57;;;;;;;6.15;2.22;;;;;;;7.86;100.00;96923.97;5035572;28;20041;-63
2023/11/16 10:46:27;;;;;;;5.75;2.05;;;;;;;7.83;100.00;96915.53;5043940;28;20045;-64
2023/11/16 10:48:54;;;;;;;7.07;2.58;;;;;;;7.83;100.00;96913.66;5052874;28;20062;-64
2023/11/16 10:51:24;;;;;;;11.35;2.03;;;;;;;7.78;100.00;96895.50;5035282;28;20050;-63
2023/11/16 10:53:52;;;;;;;9.20;2.30;;;;;;;7.86;100.00;96888.91;5033559;28;21462;-64
2023/11/16 10:56:19;;;;;;;7.20;2.00;;;;;;;7.74;100.00;96883.59;5033941;28;20042;-64
2023/11/16 10:58:47;;;;;;;6.05;1.98;;;;;;;7.70;100.00;96871.66;5043879;28;20036;-63
2023/11/16 11:01:17;;;;;;;4.18;1.67;;;;;;;7.66;100.00;96863.28;5045563;28;20048;-63
2023/11/16 11:03:47;;;;;;;6.15;2.22;;;;;;;7.67;100.00;96851.44;5041357;28;20504;-64
2023/11/16 11:06:18;;;;;;;5.57;2.20;;;;;;;7.63;100.00;96842.19;5031750;28;20067;-63
2023/11/16 11:08:44;;;;;;;7.47;2.30;;;;;;;7.67;100.00;96835.25;5032387;28;20127;-64
2023/11/16 11:11:11;;;;;;;7.40;2.03;;;;;;;7.60;100.00;96836.50;5040992;28;20044;-64
2023/11/16 11:13:43;;;;;;;11.32;2.15;;;;;;;7.76;100.00;96829.44;5043478;28;20055;-64
2023/11/16 11:16:12;;;;;;;7.05;3.17;;;;;;;7.73;100.00;96827.25;5037212;28;20053;-63
2023/11/16 11:18:45;;;;;;;6.47;2.70;;;;;;;7.85;100.00;96806.41;5043245;28;21572;-64
2023/11/16 11:21:14;;;;;;;6.53;1.77;;;;;;;7.92;100.00;96793.56;5032321;28;20052;-63
2023/11/16 11:23:41;;;;;;;7.10;1.98;;;;;;;8.01;100.00;96771.56;5035584;28;20073;-64
2023/11/16 11:26:09;;;;;;;7.50;2.60;;;;;;;8.04;100.00;96784.56;5037263;28;20048;-64
2023/11/16 11:28:38;;;;;;;5.18;1.85;;;;;;;8.15;100.00;96764.72;5034318;28;20493;-62
2023/11/16 11:31:05;;;;;;;4.60;1.45;;;;;;;8.32;100.00;96771.94;5037951;28;20045;-63
2023/11/16 11:33:42;;;;;;;6.38;2.08;;;;;;;8.26;100.00;96759.47;5038265;28;20048;-62
2023/11/16 11:36:11;;;;;;;7.97;2.10;;;;;;;8.36;100.00;96758.78;5047260;28;20072;-63